createdAt,value
2022-10-19T00:00:49.440Z,4.20
2022-10-19T00:03:20.720Z,3.63
2022-10-19T00:05:50.894Z,3.70
2022-10-19T00:08:18.638Z,3.20
2022-10-19T00:10:47.838Z,3.40
2022-10-19T00:13:15.566Z,3.20
2022-10-19T00:15:43.415Z,3.30
2022-10-19T00:18:11.460Z,2.90
2022-10-19T00:20:39.331Z,3.10
2022-10-19T00:23:07.015Z,3.33
2022-10-19T00:25:34.792Z,3.10
2022-10-19T00:28:04.008Z,3.43
2022-10-19T00:30:31.771Z,3.27
2022-10-19T00:32:59.532Z,4.73
2022-10-19T00:35:27.346Z,3.00
2022-10-19T00:37:55.060Z,2.63
2022-10-19T00:40:22.780Z,3.50
2022-10-19T00:42:55.673Z,2.60
2022-10-19T00:45:24.847Z,2.90
2022-10-19T00:47:52.732Z,2.40
2022-10-19T00:50:20.942Z,2.63
2022-10-19T00:52:48.732Z,2.90
2022-10-19T00:55:16.463Z,2.50
2022-10-19T00:57:44.267Z,2.97
2022-10-19T01:00:12.569Z,2.47
2022-10-19T01:02:41.629Z,2.30
2022-10-19T01:05:10.239Z,2.80
2022-10-19T01:07:37.994Z,2.50
2022-10-19T01:10:06.733Z,2.10
2022-10-19T01:12:47.055Z,2.50
2022-10-19T01:15:22.916Z,2.37
2022-10-19T01:17:58.271Z,2.83
2022-10-19T01:20:58.329Z,2.53
2022-10-19T01:23:41.260Z,1.70
2022-10-19T01:26:20.124Z,2.47
2022-10-19T01:28:57.067Z,2.47
2022-10-19T01:31:28.964Z,2.40
2022-10-19T01:34:00.895Z,2.40
2022-10-19T01:36:34.421Z,2.50
2022-10-19T01:39:06.817Z,2.17
2022-10-19T01:41:39.461Z,1.93
2022-10-19T01:44:12.804Z,1.67
2022-10-19T01:46:44.325Z,2.83
2022-10-19T01:49:21.184Z,1.50
2022-10-19T01:51:51.406Z,1.80
2022-10-19T01:54:20.396Z,1.63
2022-10-19T01:56:49.305Z,1.80
2022-10-19T01:59:18.552Z,1.93
2022-10-19T02:01:49.836Z,1.90
2022-10-19T02:04:20.426Z,1.77
2022-10-19T02:06:48.186Z,1.60
2022-10-19T02:09:18.257Z,2.50
2022-10-19T02:11:49.659Z,1.67
2022-10-19T02:14:21.640Z,1.50
2022-10-19T02:16:53.857Z,2.27
2022-10-19T02:21:55.209Z,2.10
2022-10-19T02:24:22.922Z,2.37
2022-10-19T02:26:50.772Z,2.70
2022-10-19T02:29:18.527Z,1.77
2022-10-19T02:31:46.372Z,1.80
2022-10-19T02:34:15.580Z,2.03
2022-10-19T02:36:43.532Z,2.40
2022-10-19T02:39:11.322Z,1.57
2022-10-19T02:41:41.894Z,1.80
2022-10-19T02:44:16.552Z,2.40
2022-10-19T02:46:46.633Z,2.27
2022-10-19T02:49:16.097Z,2.03
2022-10-19T02:51:58.618Z,1.90
2022-10-19T02:54:26.384Z,1.93
2022-10-19T02:56:54.133Z,1.63
2022-10-19T02:59:21.873Z,2.40
2022-10-19T03:01:49.871Z,1.73
2022-10-19T03:04:19.185Z,1.90
2022-10-19T03:06:47.313Z,1.70
2022-10-19T03:09:15.022Z,1.87
2022-10-19T03:11:42.876Z,2.10
2022-10-19T03:14:10.626Z,2.30
2022-10-19T03:16:38.425Z,1.40
2022-10-19T03:19:06.129Z,1.87
2022-10-19T03:21:36.446Z,2.00
2022-10-19T03:24:04.246Z,2.03
2022-10-19T03:26:32.062Z,1.53
2022-10-19T03:28:59.848Z,1.60
2022-10-19T03:31:27.646Z,2.23
2022-10-19T03:33:55.347Z,1.33
2022-10-19T03:36:24.847Z,1.60
2022-10-19T03:38:55.359Z,1.70
2022-10-19T03:41:24.357Z,1.20
2022-10-19T03:43:52.485Z,1.10
2022-10-19T03:46:20.390Z,1.63
2022-10-19T03:48:48.572Z,1.50
2022-10-19T03:51:17.784Z,0.83
2022-10-19T03:53:45.908Z,1.20
2022-10-19T03:56:17.436Z,3.33
2022-10-19T03:58:46.036Z,2.10
2022-10-19T04:01:15.822Z,1.87
2022-10-19T04:03:44.236Z,3.23
2022-10-19T04:06:16.954Z,1.77
2022-10-19T04:08:49.819Z,1.80
2022-10-19T04:11:21.353Z,1.20
2022-10-19T04:13:50.224Z,1.10
2022-10-19T04:16:18.370Z,1.50
2022-10-19T04:18:46.243Z,1.10
2022-10-19T04:21:22.644Z,1.40
2022-10-19T04:23:51.509Z,1.30
2022-10-19T04:26:21.604Z,1.07
2022-10-19T04:28:49.555Z,1.37
2022-10-19T04:31:17.406Z,1.13
2022-10-19T04:36:17.802Z,1.80
2022-10-19T04:38:45.533Z,1.40
2022-10-19T04:41:14.828Z,1.93
2022-10-19T04:43:45.240Z,1.20
2022-10-19T04:46:14.490Z,1.20
2022-10-19T04:48:42.840Z,1.00
2022-10-19T04:51:11.287Z,1.40
2022-10-19T04:53:40.425Z,1.47
2022-10-19T04:56:10.992Z,0.93
2022-10-19T04:58:38.853Z,0.90
2022-10-19T05:01:12.244Z,0.70
2022-10-19T05:03:40.463Z,1.03
2022-10-19T05:06:09.090Z,0.90
2022-10-19T05:08:37.721Z,0.80
2022-10-19T05:11:07.299Z,0.70
2022-10-19T05:13:35.793Z,0.50
2022-10-19T05:16:07.476Z,1.00
2022-10-19T05:18:37.151Z,0.83
2022-10-19T05:21:07.360Z,0.87
2022-10-19T05:23:37.541Z,1.30
2022-10-19T05:26:07.452Z,1.60
2022-10-19T05:28:35.517Z,0.70
2022-10-19T05:31:08.361Z,1.07
2022-10-19T05:33:38.269Z,1.20
2022-10-19T05:36:14.431Z,1.60
2022-10-19T05:38:42.270Z,1.30
2022-10-19T05:41:11.975Z,1.77
2022-10-19T05:43:40.648Z,1.07
2022-10-19T05:46:10.010Z,0.70
2022-10-19T05:48:39.668Z,0.50
2022-10-19T05:51:11.851Z,0.83
2022-10-19T05:53:39.746Z,1.00
2022-10-19T05:56:08.566Z,1.10
2022-10-19T05:58:36.814Z,0.80
2022-10-19T06:01:04.670Z,1.13
2022-10-19T06:03:32.364Z,0.70
2022-10-19T06:06:04.439Z,1.03
2022-10-19T06:08:32.294Z,1.40
2022-10-19T06:11:06.470Z,1.00
2022-10-19T06:13:34.296Z,0.90
2022-10-19T06:16:01.984Z,1.57
2022-10-19T06:18:29.807Z,0.80
2022-10-19T06:21:02.014Z,1.00
2022-10-19T06:23:31.598Z,0.57
2022-10-19T06:25:59.737Z,1.23
2022-10-19T06:28:27.532Z,0.90
2022-10-19T06:30:55.361Z,1.10
2022-10-19T06:33:23.149Z,0.83
2022-10-19T06:35:50.902Z,1.33
2022-10-19T06:38:19.141Z,1.23
2022-10-19T06:40:49.100Z,0.80
2022-10-19T06:43:17.325Z,0.57
2022-10-19T06:45:45.213Z,0.67
2022-10-19T06:48:12.920Z,0.83
2022-10-19T06:50:40.628Z,0.77
2022-10-19T06:53:08.446Z,0.60
2022-10-19T06:55:37.380Z,0.77
2022-10-19T06:58:06.458Z,1.40
2022-10-19T07:00:34.253Z,0.70
2022-10-19T07:03:02.008Z,1.67
2022-10-19T07:05:29.715Z,1.77
2022-10-19T07:07:58.377Z,0.80
2022-10-19T07:10:26.132Z,1.07
2022-10-19T07:12:53.906Z,0.97
2022-10-19T07:15:23.011Z,1.03
2022-10-19T07:17:50.796Z,1.10
2022-10-19T07:20:18.654Z,1.47
2022-10-19T07:22:46.387Z,0.70
2022-10-19T07:25:14.138Z,1.23
2022-10-19T07:27:42.163Z,1.10
2022-10-19T07:30:10.519Z,0.70
2022-10-19T07:32:43.120Z,0.90
2022-10-19T07:35:13.806Z,0.93
2022-10-19T07:37:41.807Z,1.20
2022-10-19T07:40:10.699Z,0.80
2022-10-19T07:42:39.206Z,0.67
2022-10-19T07:45:07.871Z,0.83
2022-10-19T07:47:40.078Z,1.20
2022-10-19T07:50:08.194Z,1.00
2022-10-19T07:52:37.045Z,0.60
2022-10-19T07:55:05.475Z,0.70
2022-10-19T07:57:33.255Z,2.17
2022-10-19T08:00:02.188Z,0.90
2022-10-19T08:02:59.799Z,0.60
2022-10-19T08:05:29.144Z,0.90
2022-10-19T08:07:57.140Z,0.60
2022-10-19T08:10:24.890Z,0.70
2022-10-19T08:12:53.912Z,1.07
2022-10-19T08:15:21.646Z,0.90
2022-10-19T08:17:50.775Z,0.77
2022-10-19T08:20:18.599Z,1.00
2022-10-19T08:22:46.870Z,0.80
2022-10-19T08:25:14.579Z,1.17
2022-10-19T08:27:42.371Z,1.10
2022-10-19T08:30:10.835Z,1.47
2022-10-19T08:32:38.575Z,1.23
2022-10-19T08:35:10.863Z,0.70
2022-10-19T08:37:44.820Z,0.70
2022-10-19T08:40:18.646Z,0.60
2022-10-19T08:42:52.301Z,0.70
2022-10-19T08:45:26.865Z,1.00
2022-10-19T08:48:00.584Z,0.90
2022-10-19T08:50:35.555Z,0.87
2022-10-19T08:53:06.252Z,0.60
2022-10-19T08:55:42.102Z,1.03
2022-10-19T08:58:21.992Z,0.73
2022-10-19T09:00:54.256Z,1.37
2022-10-19T09:03:37.768Z,0.83
2022-10-19T09:06:22.970Z,1.00
2022-10-19T09:08:52.008Z,0.83
2022-10-19T09:11:25.818Z,1.40
2022-10-19T09:14:05.041Z,0.90
2022-10-19T09:16:34.775Z,0.70
2022-10-19T09:19:02.864Z,0.80
2022-10-19T09:21:43.266Z,0.87
2022-10-19T09:24:22.678Z,0.77
2022-10-19T09:26:53.396Z,1.17
2022-10-19T09:29:25.533Z,0.90
2022-10-19T09:31:55.126Z,0.90
2022-10-19T09:34:25.267Z,0.70
2022-10-19T09:36:57.325Z,1.10
2022-10-19T09:39:29.317Z,0.60
2022-10-19T09:41:59.177Z,1.00
2022-10-19T09:44:27.854Z,0.73
2022-10-19T09:47:01.904Z,0.70
2022-10-19T09:49:44.898Z,0.87
2022-10-19T09:52:33.773Z,0.80
2022-10-19T09:55:03.520Z,1.00
2022-10-19T09:57:31.703Z,0.60
2022-10-19T09:59:59.945Z,0.90
2022-10-19T10:02:32.314Z,0.83
2022-10-19T10:05:06.819Z,0.60
2022-10-19T10:07:38.087Z,1.10
2022-10-19T10:10:12.202Z,0.70
2022-10-19T10:12:41.377Z,0.60
2022-10-19T10:15:09.879Z,0.90
2022-10-19T10:17:38.437Z,1.73
2022-10-19T10:20:20.820Z,0.90
2022-10-19T10:22:57.555Z,0.83
2022-10-19T10:25:28.360Z,0.63
2022-10-19T10:27:58.808Z,0.73
2022-10-19T10:30:28.316Z,1.00
2022-10-19T10:33:00.359Z,0.70
2022-10-19T10:35:36.499Z,0.70
2022-10-19T10:38:16.166Z,0.73
2022-10-19T10:40:50.665Z,0.80
2022-10-19T10:43:18.897Z,0.73
2022-10-19T10:45:48.166Z,0.67
2022-10-19T10:48:23.549Z,0.70
2022-10-19T10:50:52.015Z,0.90
2022-10-19T10:53:38.587Z,1.00
2022-10-19T10:56:21.925Z,0.90
2022-10-19T10:58:53.615Z,0.60
2022-10-19T11:01:23.795Z,0.73
2022-10-19T11:03:55.521Z,0.70
2022-10-19T11:09:07.087Z,0.80
2022-10-19T11:11:37.536Z,0.57
2022-10-19T11:14:23.787Z,0.80
2022-10-19T11:16:53.417Z,0.57
2022-10-19T11:19:23.855Z,0.70
2022-10-19T11:21:57.612Z,0.40
2022-10-19T11:24:34.737Z,0.60
2022-10-19T11:27:10.840Z,0.57
2022-10-19T11:29:50.862Z,0.60
2022-10-19T11:32:25.255Z,0.40
2022-10-19T11:35:05.064Z,1.43
2022-10-19T11:37:45.480Z,0.40
2022-10-19T11:40:23.478Z,0.70
2022-10-19T11:42:57.196Z,0.40
2022-10-19T11:45:40.340Z,0.60
2022-10-19T11:48:52.920Z,0.40
2022-10-19T11:51:28.973Z,0.63
2022-10-19T11:54:14.602Z,0.40
2022-10-19T11:57:03.314Z,0.73
2022-10-19T11:59:38.457Z,0.50
2022-10-19T12:02:21.530Z,0.73
2022-10-19T12:04:54.433Z,0.60
2022-10-19T12:07:38.895Z,0.60
2022-10-19T12:10:13.808Z,0.50
2022-10-19T12:12:45.451Z,0.63
2022-10-19T12:15:19.023Z,0.57
2022-10-19T12:17:49.448Z,0.60
2022-10-19T12:20:22.579Z,0.70
2022-10-19T12:22:50.711Z,0.70
2022-10-19T12:25:19.557Z,0.50
2022-10-19T12:27:50.571Z,0.50
2022-10-19T12:30:20.275Z,0.87
2022-10-19T12:32:57.166Z,0.77
2022-10-19T12:35:37.022Z,0.70
2022-10-19T12:38:07.786Z,0.60
2022-10-19T12:40:38.794Z,1.07
2022-10-19T12:43:12.259Z,0.40
2022-10-19T12:45:42.784Z,0.60
2022-10-19T12:48:24.581Z,0.87
2022-10-19T12:51:13.542Z,0.50
2022-10-19T12:53:44.371Z,1.17
2022-10-19T12:56:16.606Z,0.63
2022-10-19T12:58:54.560Z,0.80
2022-10-19T13:01:25.579Z,0.70
2022-10-19T13:04:07.104Z,1.00
2022-10-19T13:06:36.770Z,0.80
2022-10-19T13:09:06.542Z,0.50
2022-10-19T13:14:42.483Z,0.67
2022-10-19T13:17:10.255Z,0.60
2022-10-19T13:19:38.003Z,0.53
2022-10-19T13:22:27.956Z,0.60
2022-10-19T13:25:23.578Z,0.60
2022-10-19T13:27:52.474Z,0.70
2022-10-19T13:31:08.149Z,1.10
2022-10-19T13:33:50.745Z,0.60
2022-10-19T13:36:19.630Z,0.50
2022-10-19T13:38:49.594Z,0.43
2022-10-19T13:41:21.542Z,0.50
2022-10-19T13:43:57.678Z,0.63
2022-10-19T13:46:39.767Z,0.70
2022-10-19T13:49:29.067Z,0.73
2022-10-19T13:52:16.368Z,0.70
2022-10-19T13:55:28.569Z,0.60
2022-10-19T13:58:14.122Z,0.50
2022-10-19T14:00:54.425Z,0.60
2022-10-19T14:03:30.876Z,0.60
2022-10-19T14:06:11.274Z,0.53
2022-10-19T14:08:57.467Z,1.03
2022-10-19T14:11:27.798Z,0.67
2022-10-19T14:14:12.421Z,0.60
2022-10-19T14:16:47.415Z,0.60
2022-10-19T14:19:26.729Z,0.60
2022-10-19T14:21:56.360Z,0.70
2022-10-19T14:24:32.605Z,0.80
2022-10-19T14:27:05.264Z,0.60
2022-10-19T14:29:37.083Z,0.80
2022-10-19T14:32:05.278Z,0.83
2022-10-19T14:34:34.400Z,0.77
2022-10-19T14:37:02.207Z,0.80
2022-10-19T14:39:32.745Z,0.50
2022-10-19T14:42:04.821Z,0.50
2022-10-19T14:44:42.879Z,0.80
2022-10-19T14:47:20.150Z,1.00
2022-10-19T14:49:49.837Z,0.87
2022-10-19T14:52:21.876Z,0.83
2022-10-19T14:54:52.617Z,0.57
2022-10-19T14:57:24.732Z,0.50
2022-10-19T14:59:54.034Z,0.87
2022-10-19T15:02:24.183Z,0.80
2022-10-19T15:04:54.239Z,0.73
2022-10-19T15:07:24.515Z,0.73
2022-10-19T15:09:55.261Z,0.80
2022-10-19T15:12:28.285Z,0.60
2022-10-19T15:14:56.320Z,1.27
2022-10-19T15:17:26.977Z,0.60
2022-10-19T15:19:56.726Z,0.67
2022-10-19T15:22:38.612Z,0.90
2022-10-19T15:25:28.914Z,0.73
2022-10-19T15:27:57.668Z,0.90
2022-10-19T15:30:28.501Z,0.60
2022-10-19T15:33:11.781Z,0.50
2022-10-19T15:35:42.406Z,0.40
2022-10-19T15:38:27.297Z,1.23
2022-10-19T15:40:57.916Z,0.90
2022-10-19T15:43:37.509Z,0.70
2022-10-19T15:46:06.826Z,0.90
2022-10-19T15:48:51.128Z,0.90
2022-10-19T15:51:54.695Z,0.60
2022-10-19T15:54:23.872Z,0.70
2022-10-19T15:56:53.924Z,0.87
2022-10-19T15:59:23.818Z,0.83
2022-10-19T16:01:53.787Z,0.87
2022-10-19T16:04:23.796Z,0.80
2022-10-19T16:06:52.879Z,0.70
2022-10-19T16:09:22.359Z,4.50
2022-10-19T16:11:56.138Z,0.70
2022-10-19T16:14:23.933Z,0.80
2022-10-19T16:16:51.696Z,1.77
2022-10-19T16:19:19.448Z,1.00
2022-10-19T16:21:50.262Z,1.33
2022-10-19T16:24:19.776Z,4.53
2022-10-19T16:26:47.505Z,7.00
2022-10-19T16:29:15.230Z,3.70
2022-10-19T16:31:42.951Z,5.73
2022-10-19T16:34:10.670Z,1.77
2022-10-19T16:36:38.398Z,7.07
2022-10-19T16:39:06.228Z,2.37
2022-10-19T16:41:35.357Z,1.70
2022-10-19T16:44:03.167Z,0.80
2022-10-19T16:46:30.927Z,0.90
2022-10-19T16:48:58.647Z,1.30
2022-10-19T16:51:29.624Z,1.20
2022-10-19T16:53:58.980Z,1.10
2022-10-19T16:56:29.030Z,1.03
2022-10-19T16:59:00.764Z,1.00
2022-10-19T17:01:29.592Z,1.23
2022-10-19T17:03:57.973Z,2.50
2022-10-19T17:06:26.617Z,1.30
2022-10-19T17:11:44.234Z,1.67
2022-10-19T17:14:14.031Z,1.07
2022-10-19T17:16:41.947Z,1.50
2022-10-19T17:19:11.101Z,1.53
2022-10-19T17:21:41.972Z,1.73
2022-10-19T17:24:18.676Z,1.50
2022-10-19T17:26:47.991Z,1.73
2022-10-19T17:29:17.075Z,2.03
2022-10-19T17:31:44.884Z,1.40
2022-10-19T17:34:13.098Z,1.80
2022-10-19T17:36:44.201Z,1.43
2022-10-19T17:39:15.944Z,2.13
2022-10-19T17:41:43.668Z,1.53
2022-10-19T17:44:11.801Z,1.40
2022-10-19T17:46:41.105Z,1.50
2022-10-19T17:49:09.781Z,2.13
2022-10-19T17:51:38.901Z,1.77
2022-10-19T17:54:08.563Z,2.90
2022-10-19T17:56:37.713Z,2.40
2022-10-19T17:59:07.523Z,2.07
2022-10-19T18:01:35.726Z,1.93
2022-10-19T18:04:05.215Z,2.40
2022-10-19T18:06:34.876Z,2.60
2022-10-19T18:09:05.276Z,2.20
2022-10-19T18:11:36.944Z,2.20
2022-10-19T18:14:05.652Z,2.77
2022-10-19T18:16:34.818Z,2.10
2022-10-19T18:19:05.177Z,2.77
2022-10-19T18:21:34.175Z,2.90
2022-10-19T18:24:03.242Z,2.97
2022-10-19T18:26:33.616Z,2.30
2022-10-19T18:29:03.076Z,2.60
2022-10-19T18:31:31.751Z,1.93
2022-10-19T18:34:00.781Z,2.30
2022-10-19T18:36:30.505Z,2.50
2022-10-19T18:38:59.683Z,2.40
2022-10-19T18:41:28.149Z,3.00
2022-10-19T18:43:57.443Z,3.67
2022-10-19T18:46:26.609Z,3.53
2022-10-19T18:48:54.668Z,2.90
2022-10-19T18:51:23.630Z,3.30
2022-10-19T18:53:56.384Z,2.53
2022-10-19T18:56:24.560Z,3.30
2022-10-19T18:58:52.420Z,3.67
2022-10-19T19:01:22.905Z,3.70
2022-10-19T19:03:52.446Z,3.70
2022-10-19T19:06:22.041Z,4.23
2022-10-19T19:08:59.241Z,3.70
2022-10-19T19:11:32.956Z,3.70
2022-10-19T19:14:06.143Z,3.63
2022-10-19T19:16:35.809Z,3.90
2022-10-19T19:19:03.949Z,3.97
2022-10-19T19:21:38.326Z,3.83
2022-10-19T19:24:07.657Z,4.33
2022-10-19T19:26:40.333Z,4.83
2022-10-19T19:29:08.232Z,4.00
2022-10-19T19:31:36.161Z,4.73
2022-10-19T19:34:05.788Z,4.80
2022-10-19T19:36:33.703Z,4.97
2022-10-19T19:39:01.797Z,4.47
2022-10-19T19:41:31.180Z,4.50
2022-10-19T19:44:00.421Z,4.40
2022-10-19T19:46:28.516Z,5.10
2022-10-19T19:49:00.035Z,4.17
2022-10-19T19:51:29.231Z,5.17
2022-10-19T19:53:57.028Z,4.47
2022-10-19T19:56:24.781Z,12.23
2022-10-19T19:58:55.912Z,5.37
2022-10-19T20:01:25.509Z,3.60
2022-10-19T20:03:53.436Z,4.20
2022-10-19T20:06:25.021Z,9.97
2022-10-19T20:08:54.223Z,4.40
2022-10-19T20:11:22.044Z,4.10
2022-10-19T20:13:49.854Z,4.17
2022-10-19T20:16:18.854Z,4.73
2022-10-19T20:18:49.443Z,4.10
2022-10-19T20:21:18.070Z,4.57
2022-10-19T20:23:46.751Z,3.47
2022-10-19T20:26:18.179Z,4.07
2022-10-19T20:28:46.387Z,4.03
2022-10-19T20:31:15.093Z,3.90
2022-10-19T20:33:44.068Z,4.40
2022-10-19T20:36:14.797Z,4.10
2022-10-19T20:38:47.229Z,3.83
2022-10-19T20:41:15.023Z,4.10
2022-10-19T20:43:42.750Z,4.03
2022-10-19T20:46:12.940Z,4.00
2022-10-19T20:48:41.227Z,4.60
2022-10-19T20:51:10.821Z,3.37
2022-10-19T20:53:40.314Z,4.50
2022-10-19T20:56:09.632Z,3.90
2022-10-19T20:58:38.723Z,4.47
2022-10-19T21:01:08.448Z,4.20
2022-10-19T21:03:36.269Z,4.43
2022-10-19T21:06:05.672Z,4.43
2022-10-19T21:08:34.730Z,3.60
2022-10-19T21:11:12.513Z,4.07
2022-10-19T21:13:40.346Z,4.77
2022-10-19T21:16:12.138Z,5.20
2022-10-19T21:18:40.336Z,4.73
2022-10-19T21:21:15.735Z,3.80
2022-10-19T21:23:44.362Z,4.33
2022-10-19T21:26:14.361Z,4.00
2022-10-19T21:28:47.016Z,4.87
2022-10-19T21:31:15.025Z,5.33
2022-10-19T21:33:42.791Z,4.80
2022-10-19T21:36:11.363Z,4.50
2022-10-19T21:38:39.471Z,4.70
2022-10-19T21:41:09.586Z,3.90
2022-10-19T21:43:38.656Z,3.97
2022-10-19T21:46:08.947Z,3.70
2022-10-19T21:48:36.670Z,3.40
2022-10-19T21:51:13.093Z,3.13
2022-10-19T21:53:40.818Z,3.50
2022-10-19T21:56:08.526Z,3.10
2022-10-19T21:58:37.779Z,3.30
2022-10-19T22:01:06.226Z,2.80
2022-10-19T22:03:34.677Z,2.97
2022-10-19T22:06:02.978Z,1.90
2022-10-19T22:08:30.716Z,2.00
2022-10-19T22:10:58.473Z,2.30
2022-10-19T22:13:26.265Z,2.27
2022-10-19T22:15:55.373Z,2.30
2022-10-19T22:18:23.069Z,2.40
2022-10-19T22:20:50.769Z,2.10
2022-10-19T22:23:18.490Z,1.90
2022-10-19T22:25:46.255Z,2.10
2022-10-19T22:28:14.022Z,2.00
2022-10-19T22:30:44.972Z,2.07
2022-10-19T22:33:14.567Z,2.07
2022-10-19T22:35:42.312Z,2.07
2022-10-19T22:38:10.007Z,1.70
2022-10-19T22:40:37.726Z,1.93
2022-10-19T22:43:06.798Z,2.33
2022-10-19T22:45:34.770Z,2.37
2022-10-19T22:48:02.807Z,2.00
2022-10-19T22:50:31.869Z,1.90
2022-10-19T22:52:59.666Z,2.10
2022-10-19T22:55:27.372Z,2.20
2022-10-19T22:57:55.108Z,2.57
2022-10-19T23:00:22.847Z,2.00
2022-10-19T23:02:50.603Z,2.07
2022-10-19T23:05:18.441Z,2.03
2022-10-19T23:07:47.533Z,2.00
2022-10-19T23:10:15.521Z,2.17
2022-10-19T23:12:43.307Z,1.93
2022-10-19T23:15:11.783Z,2.27
2022-10-19T23:17:39.492Z,2.77
2022-10-19T23:20:08.420Z,1.60
2022-10-19T23:22:36.186Z,2.70
2022-10-19T23:25:06.036Z,2.60
2022-10-19T23:27:34.525Z,2.83
2022-10-19T23:30:03.418Z,2.70
2022-10-19T23:32:31.286Z,2.50
2022-10-19T23:34:59.020Z,2.63
2022-10-19T23:37:26.915Z,2.57
2022-10-19T23:39:54.626Z,2.17
2022-10-19T23:42:23.733Z,2.17
2022-10-19T23:44:51.435Z,2.63
2022-10-19T23:47:19.189Z,2.17
2022-10-19T23:49:46.866Z,2.60
2022-10-19T23:52:14.560Z,1.97
2022-10-19T23:54:42.492Z,2.07
2022-10-19T23:57:10.313Z,2.97
2022-10-19T23:59:39.369Z,2.20
